sensor_id;sensor_type;location;lat;lon;timestamp;pressure;altitude;pressure_sealevel;temperature;humidity
70256;BME280;57669;52.624;-1.688;2023-03-05T00:01:45;102085.23;;;3.02;42.71
70256;BME280;57669;52.624;-1.688;2023-03-05T00:04:13;102083.33;;;3.47;42.14
70256;BME280;57669;52.624;-1.688;2023-03-05T00:06:36;102077.47;;;3.07;42.77
70256;BME280;57669;52.624;-1.688;2023-03-05T00:09:01;102069.66;;;2.80;43.06
70256;BME280;57669;52.624;-1.688;2023-03-05T00:11:27;102060.44;;;3.86;41.50
70256;BME280;57669;52.624;-1.688;2023-03-05T00:13:52;102055.06;;;3.80;40.97
70256;BME280;57669;52.624;-1.688;2023-03-05T00:16:16;102049.15;;;4.27;40.42
70256;BME280;57669;52.624;-1.688;2023-03-05T00:18:42;102049.38;;;4.49;39.84
70256;BME280;57669;52.624;-1.688;2023-03-05T00:21:16;102047.92;;;4.86;39.40
70256;BME280;57669;52.624;-1.688;2023-03-05T00:23:32;102048.22;;;3.60;40.55
70256;BME280;57669;52.624;-1.688;2023-03-05T00:26:00;102046.24;;;3.63;40.81
70256;BME280;57669;52.624;-1.688;2023-03-05T00:28:24;102041.55;;;3.83;40.77
70256;BME280;57669;52.624;-1.688;2023-03-05T00:30:49;102047.69;;;4.18;39.39
70256;BME280;57669;52.624;-1.688;2023-03-05T00:33:15;102046.90;;;3.72;40.74
70256;BME280;57669;52.624;-1.688;2023-03-05T00:35:41;102046.69;;;3.71;40.84
70256;BME280;57669;52.624;-1.688;2023-03-05T00:38:05;102052.40;;;3.25;41.66
70256;BME280;57669;52.624;-1.688;2023-03-05T00:40:34;102049.70;;;3.29;42.13
70256;BME280;57669;52.624;-1.688;2023-03-05T00:42:56;102040.67;;;3.39;41.63
70256;BME280;57669;52.624;-1.688;2023-03-05T00:45:21;102037.71;;;3.59;41.22
70256;BME280;57669;52.624;-1.688;2023-03-05T00:47:46;102044.73;;;2.58;42.58
70256;BME280;57669;52.624;-1.688;2023-03-05T00:52:37;102038.27;;;3.17;42.07
70256;BME280;57669;52.624;-1.688;2023-03-05T00:55:03;102029.61;;;3.42;41.45
70256;BME280;57669;52.624;-1.688;2023-03-05T00:57:28;102027.10;;;3.66;40.76
70256;BME280;57669;52.624;-1.688;2023-03-05T00:59:53;102024.43;;;3.93;40.57
70256;BME280;57669;52.624;-1.688;2023-03-05T01:02:19;102020.31;;;3.89;40.25
70256;BME280;57669;52.624;-1.688;2023-03-05T01:04:45;102017.45;;;3.21;41.46
70256;BME280;57669;52.624;-1.688;2023-03-05T01:07:10;102014.60;;;3.48;41.11
70256;BME280;57669;52.624;-1.688;2023-03-05T01:09:36;102015.84;;;3.50;41.02
70256;BME280;57669;52.624;-1.688;2023-03-05T01:12:02;102017.42;;;2.58;42.19
70256;BME280;57669;52.624;-1.688;2023-03-05T01:14:27;102010.09;;;3.54;41.39
70256;BME280;57669;52.624;-1.688;2023-03-05T01:16:53;102003.74;;;3.80;40.38
70256;BME280;57669;52.624;-1.688;2023-03-05T01:19:17;102006.74;;;3.26;41.51
70256;BME280;57669;52.624;-1.688;2023-03-05T01:21:43;102005.16;;;3.90;40.76
70256;BME280;57669;52.624;-1.688;2023-03-05T01:24:09;102002.87;;;3.65;41.01
70256;BME280;57669;52.624;-1.688;2023-03-05T01:26:34;102000.62;;;3.22;41.51
70256;BME280;57669;52.624;-1.688;2023-03-05T01:28:59;102002.98;;;3.05;41.88
70256;BME280;57669;52.624;-1.688;2023-03-05T01:31:25;101992.89;;;3.67;41.10
70256;BME280;57669;52.624;-1.688;2023-03-05T01:33:51;101987.08;;;3.77;40.94
70256;BME280;57669;52.624;-1.688;2023-03-05T01:36:15;101985.34;;;4.50;39.92
70256;BME280;57669;52.624;-1.688;2023-03-05T01:38:41;101983.10;;;4.39;39.99
70256;BME280;57669;52.624;-1.688;2023-03-05T01:41:07;101976.50;;;4.55;39.41
70256;BME280;57669;52.624;-1.688;2023-03-05T01:43:31;101974.74;;;4.81;38.95
70256;BME280;57669;52.624;-1.688;2023-03-05T01:48:21;101970.14;;;4.82;38.53
70256;BME280;57669;52.624;-1.688;2023-03-05T01:50:47;101971.30;;;5.08;38.22
70256;BME280;57669;52.624;-1.688;2023-03-05T01:53:13;101967.99;;;4.92;38.27
70256;BME280;57669;52.624;-1.688;2023-03-05T01:55:38;101966.43;;;4.70;38.97
70256;BME280;57669;52.624;-1.688;2023-03-05T01:58:05;101967.70;;;4.70;38.97
70256;BME280;57669;52.624;-1.688;2023-03-05T02:00:31;101966.89;;;4.15;40.07
70256;BME280;57669;52.624;-1.688;2023-03-05T02:02:55;101959.85;;;3.86;40.88
70256;BME280;57669;52.624;-1.688;2023-03-05T02:05:22;101953.59;;;3.37;41.76
70256;BME280;57669;52.624;-1.688;2023-03-05T02:07:44;101949.23;;;3.04;42.29
70256;BME280;57669;52.624;-1.688;2023-03-05T02:10:15;101947.62;;;2.88;42.71
70256;BME280;57669;52.624;-1.688;2023-03-05T02:12:35;101944.83;;;2.99;42.79
70256;BME280;57669;52.624;-1.688;2023-03-05T02:15:00;101945.53;;;2.83;43.59
70256;BME280;57669;52.624;-1.688;2023-03-05T02:17:26;101941.61;;;2.55;44.16
70256;BME280;57669;52.624;-1.688;2023-03-05T02:19:53;101938.07;;;2.53;44.35
70256;BME280;57669;52.624;-1.688;2023-03-05T02:22:19;101933.68;;;3.47;42.85
70256;BME280;57669;52.624;-1.688;2023-03-05T02:24:42;101930.99;;;3.40;42.87
70256;BME280;57669;52.624;-1.688;2023-03-05T02:27:08;101931.11;;;3.34;42.76
70256;BME280;57669;52.624;-1.688;2023-03-05T02:29:34;101927.97;;;3.20;42.62
70256;BME280;57669;52.624;-1.688;2023-03-05T02:31:59;101921.49;;;3.43;42.34
70256;BME280;57669;52.624;-1.688;2023-03-05T02:34:24;101916.49;;;3.01;43.10
70256;BME280;57669;52.624;-1.688;2023-03-05T02:36:49;101910.46;;;3.28;42.99
70256;BME280;57669;52.624;-1.688;2023-03-05T02:39:24;101907.27;;;3.60;42.11
70256;BME280;57669;52.624;-1.688;2023-03-05T02:41:39;101910.12;;;3.77;41.87
70256;BME280;57669;52.624;-1.688;2023-03-05T02:44:20;101904.00;;;3.37;42.17
70256;BME280;57669;52.624;-1.688;2023-03-05T02:46:30;101901.00;;;3.72;41.77
70256;BME280;57669;52.624;-1.688;2023-03-05T02:48:56;101895.09;;;3.49;42.01
70256;BME280;57669;52.624;-1.688;2023-03-05T02:51:21;101893.46;;;3.73;41.64
70256;BME280;57669;52.624;-1.688;2023-03-05T02:53:46;101890.73;;;3.58;41.99
70256;BME280;57669;52.624;-1.688;2023-03-05T02:56:12;101887.59;;;3.26;42.27
70256;BME280;57669;52.624;-1.688;2023-03-05T02:58:38;101886.92;;;3.30;42.33
70256;BME280;57669;52.624;-1.688;2023-03-05T03:01:03;101882.81;;;3.59;41.66
70256;BME280;57669;52.624;-1.688;2023-03-05T03:03:28;101876.13;;;3.82;41.41
70256;BME280;57669;52.624;-1.688;2023-03-05T03:05:54;101878.36;;;3.72;41.69
70256;BME280;57669;52.624;-1.688;2023-03-05T03:08:19;101878.20;;;3.78;41.57
70256;BME280;57669;52.624;-1.688;2023-03-05T03:10:44;101876.68;;;3.97;40.51
70256;BME280;57669;52.624;-1.688;2023-03-05T03:13:10;101876.44;;;4.32;40.43
70256;BME280;57669;52.624;-1.688;2023-03-05T03:15:35;101874.63;;;3.82;40.82
70256;BME280;57669;52.624;-1.688;2023-03-05T03:18:01;101872.91;;;4.25;40.42
70256;BME280;57669;52.624;-1.688;2023-03-05T03:20:26;101875.77;;;4.21;40.32
70256;BME280;57669;52.624;-1.688;2023-03-05T03:22:52;101869.81;;;4.26;41.14
70256;BME280;57669;52.624;-1.688;2023-03-05T03:25:20;101862.00;;;4.39;41.01
70256;BME280;57669;52.624;-1.688;2023-03-05T03:27:42;101855.33;;;3.93;41.54
70256;BME280;57669;52.624;-1.688;2023-03-05T03:30:12;101852.82;;;4.04;41.30
70256;BME280;57669;52.624;-1.688;2023-03-05T03:32:33;101847.81;;;3.71;41.26
70256;BME280;57669;52.624;-1.688;2023-03-05T03:35:05;101838.47;;;4.28;40.20
70256;BME280;57669;52.624;-1.688;2023-03-05T03:37:24;101834.78;;;3.94;41.36
70256;BME280;57669;52.624;-1.688;2023-03-05T03:39:49;101829.59;;;3.48;41.94
70256;BME280;57669;52.624;-1.688;2023-03-05T03:42:16;101822.80;;;3.07;42.89
70256;BME280;57669;52.624;-1.688;2023-03-05T03:44:40;101818.02;;;3.19;42.47
70256;BME280;57669;52.624;-1.688;2023-03-05T03:47:05;101815.55;;;3.54;42.07
70256;BME280;57669;52.624;-1.688;2023-03-05T03:49:30;101813.96;;;3.72;41.75
70256;BME280;57669;52.624;-1.688;2023-03-05T03:51:55;101805.24;;;4.18;40.90
70256;BME280;57669;52.624;-1.688;2023-03-05T03:54:21;101795.06;;;3.64;41.61
70256;BME280;57669;52.624;-1.688;2023-03-05T03:56:46;101792.97;;;2.75;42.82
70256;BME280;57669;52.624;-1.688;2023-03-05T03:59:11;101788.14;;;3.21;42.12
70256;BME280;57669;52.624;-1.688;2023-03-05T04:01:36;101788.49;;;3.08;42.47
70256;BME280;57669;52.624;-1.688;2023-03-05T04:04:02;101788.09;;;3.02;42.46
70256;BME280;57669;52.624;-1.688;2023-03-05T04:06:27;101778.71;;;3.18;42.25
70256;BME280;57669;52.624;-1.688;2023-03-05T04:08:52;101774.73;;;3.05;42.49
70256;BME280;57669;52.624;-1.688;2023-03-05T04:11:17;101779.99;;;2.87;43.05
70256;BME280;57669;52.624;-1.688;2023-03-05T04:13:42;101775.74;;;3.27;42.51
70256;BME280;57669;52.624;-1.688;2023-03-05T04:16:08;101776.25;;;3.08;42.45
70256;BME280;57669;52.624;-1.688;2023-03-05T04:18:33;101774.02;;;3.51;41.67
70256;BME280;57669;52.624;-1.688;2023-03-05T04:23:24;101770.54;;;3.16;42.76
70256;BME280;57669;52.624;-1.688;2023-03-05T04:25:49;101770.82;;;3.19;42.70
70256;BME280;57669;52.624;-1.688;2023-03-05T04:28:15;101767.36;;;3.92;41.52
70256;BME280;57669;52.624;-1.688;2023-03-05T04:30:40;101766.83;;;4.12;41.34
70256;BME280;57669;52.624;-1.688;2023-03-05T04:33:06;101768.38;;;3.35;41.80
70256;BME280;57669;52.624;-1.688;2023-03-05T04:35:31;101764.07;;;4.49;40.75
70256;BME280;57669;52.624;-1.688;2023-03-05T04:37:56;101757.72;;;4.87;40.23
70256;BME280;57669;52.624;-1.688;2023-03-05T04:40:21;101760.53;;;4.55;40.04
70256;BME280;57669;52.624;-1.688;2023-03-05T04:42:46;101756.40;;;4.68;40.02
70256;BME280;57669;52.624;-1.688;2023-03-05T04:45:12;101757.90;;;4.59;39.85
70256;BME280;57669;52.624;-1.688;2023-03-05T04:47:38;101751.33;;;4.62;40.51
70256;BME280;57669;52.624;-1.688;2023-03-05T04:50:04;101748.29;;;3.45;42.01
70256;BME280;57669;52.624;-1.688;2023-03-05T04:54:53;101745.26;;;4.15;41.55
70256;BME280;57669;52.624;-1.688;2023-03-05T04:57:19;101745.10;;;4.40;40.79
70256;BME280;57669;52.624;-1.688;2023-03-05T04:59:44;101741.10;;;4.10;41.01
70256;BME280;57669;52.624;-1.688;2023-03-05T05:02:09;101735.30;;;4.34;40.97
70256;BME280;57669;52.624;-1.688;2023-03-05T05:04:35;101732.04;;;4.09;41.17
70256;BME280;57669;52.624;-1.688;2023-03-05T05:07:00;101724.73;;;4.09;40.66
70256;BME280;57669;52.624;-1.688;2023-03-05T05:09:26;101720.86;;;4.28;40.66
70256;BME280;57669;52.624;-1.688;2023-03-05T05:11:52;101719.77;;;4.44;40.39
70256;BME280;57669;52.624;-1.688;2023-03-05T05:14:16;101712.89;;;4.97;39.72
70256;BME280;57669;52.624;-1.688;2023-03-05T05:16:42;101709.31;;;4.96;39.69
70256;BME280;57669;52.624;-1.688;2023-03-05T05:19:07;101707.33;;;4.86;39.85
70256;BME280;57669;52.624;-1.688;2023-03-05T05:21:33;101699.29;;;3.84;41.57
70256;BME280;57669;52.624;-1.688;2023-03-05T05:23:58;101697.40;;;4.51;40.65
70256;BME280;57669;52.624;-1.688;2023-03-05T05:26:25;101695.70;;;4.54;40.91
70256;BME280;57669;52.624;-1.688;2023-03-05T05:28:49;101694.43;;;4.10;41.07
70256;BME280;57669;52.624;-1.688;2023-03-05T05:31:15;101692.43;;;4.01;41.09
70256;BME280;57669;52.624;-1.688;2023-03-05T05:33:41;101693.19;;;4.43;40.66
70256;BME280;57669;52.624;-1.688;2023-03-05T05:36:09;101685.09;;;4.69;40.15
70256;BME280;57669;52.624;-1.688;2023-03-05T05:38:32;101686.40;;;4.52;40.29
70256;BME280;57669;52.624;-1.688;2023-03-05T05:41:02;101686.45;;;3.95;41.19
70256;BME280;57669;52.624;-1.688;2023-03-05T05:43:22;101687.71;;;4.12;40.99
70256;BME280;57669;52.624;-1.688;2023-03-05T05:45:47;101685.62;;;3.91;41.17
70256;BME280;57669;52.624;-1.688;2023-03-05T05:48:12;101682.80;;;4.33;40.80
70256;BME280;57669;52.624;-1.688;2023-03-05T05:50:38;101671.68;;;3.76;41.55
70256;BME280;57669;52.624;-1.688;2023-03-05T05:53:03;101669.69;;;4.29;40.92
70256;BME280;57669;52.624;-1.688;2023-03-05T05:55:28;101667.95;;;3.98;41.49
70256;BME280;57669;52.624;-1.688;2023-03-05T05:57:53;101666.90;;;4.55;40.44
70256;BME280;57669;52.624;-1.688;2023-03-05T06:00:19;101665.48;;;4.53;40.31
70256;BME280;57669;52.624;-1.688;2023-03-05T06:02:44;101666.28;;;4.71;40.09
70256;BME280;57669;52.624;-1.688;2023-03-05T06:05:12;101661.62;;;4.36;40.62
70256;BME280;57669;52.624;-1.688;2023-03-05T06:07:35;101661.04;;;4.88;40.12
70256;BME280;57669;52.624;-1.688;2023-03-05T06:10:00;101660.71;;;4.44;40.76
70256;BME280;57669;52.624;-1.688;2023-03-05T06:12:26;101660.13;;;3.96;41.04
70256;BME280;57669;52.624;-1.688;2023-03-05T06:14:51;101658.02;;;4.37;40.45
70256;BME280;57669;52.624;-1.688;2023-03-05T06:17:17;101653.14;;;3.68;41.92
70256;BME280;57669;52.624;-1.688;2023-03-05T06:19:42;101653.19;;;4.06;41.75
70256;BME280;57669;52.624;-1.688;2023-03-05T06:22:08;101650.69;;;3.77;42.17
70256;BME280;57669;52.624;-1.688;2023-03-05T06:24:33;101648.74;;;3.55;42.04
70256;BME280;57669;52.624;-1.688;2023-03-05T06:26:59;101649.48;;;3.45;41.93
70256;BME280;57669;52.624;-1.688;2023-03-05T06:29:24;101648.72;;;4.12;41.02
70256;BME280;57669;52.624;-1.688;2023-03-05T06:31:50;101643.99;;;4.60;40.56
70256;BME280;57669;52.624;-1.688;2023-03-05T06:34:15;101644.70;;;4.35;40.86
70256;BME280;57669;52.624;-1.688;2023-03-05T06:36:40;101645.73;;;4.38;41.17
70256;BME280;57669;52.624;-1.688;2023-03-05T06:39:05;101641.12;;;4.33;41.06
70256;BME280;57669;52.624;-1.688;2023-03-05T06:41:30;101640.42;;;3.18;42.76
70256;BME280;57669;52.624;-1.688;2023-03-05T06:43:58;101644.10;;;3.20;43.71
70256;BME280;57669;52.624;-1.688;2023-03-05T06:46:23;101645.67;;;3.27;43.40
70256;BME280;57669;52.624;-1.688;2023-03-05T06:48:47;101642.14;;;3.68;42.90
70256;BME280;57669;52.624;-1.688;2023-03-05T06:51:14;101640.22;;;3.24;43.03
70256;BME280;57669;52.624;-1.688;2023-03-05T06:53:38;101644.08;;;3.18;42.70
70256;BME280;57669;52.624;-1.688;2023-03-05T06:56:04;101643.55;;;3.71;41.78
70256;BME280;57669;52.624;-1.688;2023-03-05T06:58:29;101641.92;;;3.78;41.85
70256;BME280;57669;52.624;-1.688;2023-03-05T07:00:54;101639.67;;;4.17;40.91
70256;BME280;57669;52.624;-1.688;2023-03-05T07:03:20;101635.98;;;3.82;41.39
70256;BME280;57669;52.624;-1.688;2023-03-05T07:05:45;101635.65;;;4.11;41.00
70256;BME280;57669;52.624;-1.688;2023-03-05T07:08:11;101634.80;;;4.20;41.06
70256;BME280;57669;52.624;-1.688;2023-03-05T07:10:37;101628.59;;;4.87;40.63
70256;BME280;57669;52.624;-1.688;2023-03-05T07:13:02;101621.06;;;4.09;41.04
70256;BME280;57669;52.624;-1.688;2023-03-05T07:15:28;101621.76;;;4.01;41.97
70256;BME280;57669;52.624;-1.688;2023-03-05T07:17:53;101623.88;;;4.51;41.18
70256;BME280;57669;52.624;-1.688;2023-03-05T07:20:19;101612.34;;;3.36;42.99
70256;BME280;57669;52.624;-1.688;2023-03-05T07:22:44;101612.14;;;3.99;41.44
70256;BME280;57669;52.624;-1.688;2023-03-05T07:25:10;101607.96;;;4.65;40.75
70256;BME280;57669;52.624;-1.688;2023-03-05T07:27:36;101599.98;;;3.34;43.10
70256;BME280;57669;52.624;-1.688;2023-03-05T07:30:01;101599.00;;;3.34;43.21
70256;BME280;57669;52.624;-1.688;2023-03-05T07:32:26;101599.40;;;4.07;42.37
70256;BME280;57669;52.624;-1.688;2023-03-05T07:34:52;101596.20;;;3.68;42.45
70256;BME280;57669;52.624;-1.688;2023-03-05T07:37:18;101593.58;;;3.84;42.38
70256;BME280;57669;52.624;-1.688;2023-03-05T07:39:43;101594.24;;;3.62;41.92
70256;BME280;57669;52.624;-1.688;2023-03-05T07:42:08;101589.35;;;4.43;40.81
70256;BME280;57669;52.624;-1.688;2023-03-05T07:44:35;101578.15;;;4.84;40.11
70256;BME280;57669;52.624;-1.688;2023-03-05T07:46:59;101568.61;;;4.84;39.85
70256;BME280;57669;52.624;-1.688;2023-03-05T07:49:25;101568.28;;;5.13;40.02
70256;BME280;57669;52.624;-1.688;2023-03-05T07:51:51;101575.01;;;4.26;40.87
70256;BME280;57669;52.624;-1.688;2023-03-05T07:54:16;101563.66;;;4.72;40.14
70256;BME280;57669;52.624;-1.688;2023-03-05T07:56:41;101564.37;;;5.14;39.83
70256;BME280;57669;52.624;-1.688;2023-03-05T07:59:10;101559.51;;;4.93;39.29
70256;BME280;57669;52.624;-1.688;2023-03-05T08:01:33;101559.32;;;4.66;39.79
70256;BME280;57669;52.624;-1.688;2023-03-05T08:03:57;101555.22;;;4.53;39.21
70256;BME280;57669;52.624;-1.688;2023-03-05T08:06:23;101559.26;;;4.62;39.52
70256;BME280;57669;52.624;-1.688;2023-03-05T08:08:48;101562.38;;;3.93;40.53
70256;BME280;57669;52.624;-1.688;2023-03-05T08:11:15;101559.59;;;3.60;41.03
70256;BME280;57669;52.624;-1.688;2023-03-05T08:13:40;101553.65;;;3.91;40.87
70256;BME280;57669;52.624;-1.688;2023-03-05T08:16:05;101551.81;;;3.86;40.74
70256;BME280;57669;52.624;-1.688;2023-03-05T08:18:30;101546.66;;;3.20;42.08
70256;BME280;57669;52.624;-1.688;2023-03-05T08:20:56;101544.13;;;3.20;42.10
70256;BME280;57669;52.624;-1.688;2023-03-05T08:23:21;101537.78;;;2.50;42.96
70256;BME280;57669;52.624;-1.688;2023-03-05T08:25:46;101542.83;;;2.21;44.77
70256;BME280;57669;52.624;-1.688;2023-03-05T08:28:12;101543.99;;;2.93;43.55
70256;BME280;57669;52.624;-1.688;2023-03-05T08:30:39;101535.32;;;3.03;43.67
70256;BME280;57669;52.624;-1.688;2023-03-05T08:33:03;101532.67;;;3.33;42.75
70256;BME280;57669;52.624;-1.688;2023-03-05T08:35:29;101531.35;;;3.28;43.09
70256;BME280;57669;52.624;-1.688;2023-03-05T08:37:54;101532.53;;;3.04;43.58
70256;BME280;57669;52.624;-1.688;2023-03-05T08:40:19;101530.33;;;2.69;44.81
70256;BME280;57669;52.624;-1.688;2023-03-05T08:42:45;101526.93;;;2.59;45.06
70256;BME280;57669;52.624;-1.688;2023-03-05T08:45:11;101524.15;;;2.72;44.84
70256;BME280;57669;52.624;-1.688;2023-03-05T08:47:36;101525.22;;;3.57;43.03
70256;BME280;57669;52.624;-1.688;2023-03-05T08:50:01;101528.95;;;4.13;42.34
70256;BME280;57669;52.624;-1.688;2023-03-05T08:52:27;101523.33;;;3.18;43.67
70256;BME280;57669;52.624;-1.688;2023-03-05T08:54:52;101522.97;;;2.35;45.61
70256;BME280;57669;52.624;-1.688;2023-03-05T08:57:17;101522.41;;;2.81;45.76
70256;BME280;57669;52.624;-1.688;2023-03-05T08:59:43;101516.10;;;2.67;45.42
70256;BME280;57669;52.624;-1.688;2023-03-05T09:02:09;101515.29;;;3.21;44.57
70256;BME280;57669;52.624;-1.688;2023-03-05T09:04:34;101508.75;;;2.93;45.51
70256;BME280;57669;52.624;-1.688;2023-03-05T09:06:59;101513.16;;;2.50;46.47
70256;BME280;57669;52.624;-1.688;2023-03-05T09:09:25;101508.07;;;2.46;46.80
70256;BME280;57669;52.624;-1.688;2023-03-05T09:11:50;101505.62;;;3.45;45.06
70256;BME280;57669;52.624;-1.688;2023-03-05T09:14:15;101502.64;;;2.45;46.68
70256;BME280;57669;52.624;-1.688;2023-03-05T09:16:41;101506.96;;;2.59;46.24
70256;BME280;57669;52.624;-1.688;2023-03-05T09:19:06;101500.09;;;2.63;46.09
70256;BME280;57669;52.624;-1.688;2023-03-05T09:21:31;101495.94;;;3.30;44.74
70256;BME280;57669;52.624;-1.688;2023-03-05T09:23:56;101491.84;;;3.50;44.41
70256;BME280;57669;52.624;-1.688;2023-03-05T09:26:22;101490.66;;;2.55;46.40
70256;BME280;57669;52.624;-1.688;2023-03-05T09:28:47;101490.75;;;2.54;46.53
70256;BME280;57669;52.624;-1.688;2023-03-05T09:31:15;101489.20;;;2.63;46.88
70256;BME280;57669;52.624;-1.688;2023-03-05T09:33:39;101481.98;;;3.13;45.77
70256;BME280;57669;52.624;-1.688;2023-03-05T09:36:12;101476.99;;;3.41;44.50
70256;BME280;57669;52.624;-1.688;2023-03-05T09:38:29;101475.77;;;2.70;45.90
70256;BME280;57669;52.624;-1.688;2023-03-05T09:40:59;101471.05;;;2.50;46.67
70256;BME280;57669;52.624;-1.688;2023-03-05T09:43:27;101466.28;;;2.69;46.46
70256;BME280;57669;52.624;-1.688;2023-03-05T09:45:56;101464.85;;;2.24;48.51
70256;BME280;57669;52.624;-1.688;2023-03-05T09:48:15;101458.38;;;2.26;47.33
70256;BME280;57669;52.624;-1.688;2023-03-05T09:50:39;101459.69;;;2.54;47.58
70256;BME280;57669;52.624;-1.688;2023-03-05T09:53:05;101460.23;;;2.48;47.95
70256;BME280;57669;52.624;-1.688;2023-03-05T09:55:30;101459.32;;;2.11;47.66
70256;BME280;57669;52.624;-1.688;2023-03-05T09:57:56;101455.23;;;2.41;47.87
70256;BME280;57669;52.624;-1.688;2023-03-05T10:00:26;101449.63;;;2.14;48.50
70256;BME280;57669;52.624;-1.688;2023-03-05T10:02:48;101450.37;;;1.72;49.80
70256;BME280;57669;52.624;-1.688;2023-03-05T10:05:14;101449.65;;;3.00;47.69
70256;BME280;57669;52.624;-1.688;2023-03-05T10:07:37;101444.46;;;2.27;48.50
70256;BME280;57669;52.624;-1.688;2023-03-05T10:10:00;101438.36;;;2.76;47.77
70256;BME280;57669;52.624;-1.688;2023-03-05T10:12:31;101432.40;;;3.29;46.17
70256;BME280;57669;52.624;-1.688;2023-03-05T10:14:49;101429.30;;;3.74;45.67
70256;BME280;57669;52.624;-1.688;2023-03-05T10:17:27;101423.19;;;2.71;47.56
70256;BME280;57669;52.624;-1.688;2023-03-05T10:19:54;101420.62;;;3.49;46.01
70256;BME280;57669;52.624;-1.688;2023-03-05T10:22:13;101418.36;;;3.95;45.35
70256;BME280;57669;52.624;-1.688;2023-03-05T10:24:39;101414.13;;;3.15;46.20
70256;BME280;57669;52.624;-1.688;2023-03-05T10:26:59;101418.94;;;3.27;46.99
70256;BME280;57669;52.624;-1.688;2023-03-05T10:31:54;101409.55;;;3.29;46.65
70256;BME280;57669;52.624;-1.688;2023-03-05T10:34:24;101407.23;;;2.75;47.69
70256;BME280;57669;52.624;-1.688;2023-03-05T10:36:47;101408.40;;;2.27;49.21
70256;BME280;57669;52.624;-1.688;2023-03-05T10:39:19;101413.71;;;2.62;48.37
70256;BME280;57669;52.624;-1.688;2023-03-05T10:41:33;101410.89;;;2.98;48.51
70256;BME280;57669;52.624;-1.688;2023-03-05T10:43:59;101411.93;;;2.13;50.00
70256;BME280;57669;52.624;-1.688;2023-03-05T10:46:20;101408.00;;;2.15;50.09
70256;BME280;57669;52.624;-1.688;2023-03-05T10:48:46;101399.29;;;1.56;51.55
70256;BME280;57669;52.624;-1.688;2023-03-05T10:51:13;101394.66;;;2.56;49.27
70256;BME280;57669;52.624;-1.688;2023-03-05T10:53:43;101395.98;;;2.55;48.62
70256;BME280;57669;52.624;-1.688;2023-03-05T10:56:01;101389.90;;;2.64;47.71
70256;BME280;57669;52.624;-1.688;2023-03-05T10:58:26;101381.55;;;2.67;48.31
70256;BME280;57669;52.624;-1.688;2023-03-05T11:01:00;101379.96;;;2.58;48.23
70256;BME280;57669;52.624;-1.688;2023-03-05T11:03:16;101375.91;;;2.15;49.20
70256;BME280;57669;52.624;-1.688;2023-03-05T11:05:44;101375.90;;;3.31;47.06
70256;BME280;57669;52.624;-1.688;2023-03-05T11:08:21;101375.05;;;2.56;47.53
70256;BME280;57669;52.624;-1.688;2023-03-05T11:10:32;101363.06;;;1.86;49.18
70256;BME280;57669;52.624;-1.688;2023-03-05T11:12:57;101360.55;;;1.67;49.97
70256;BME280;57669;52.624;-1.688;2023-03-05T11:15:26;101357.82;;;1.43;50.70
70256;BME280;57669;52.624;-1.688;2023-03-05T11:22:37;101345.94;;;2.98;48.60
70256;BME280;57669;52.624;-1.688;2023-03-05T11:27:33;101330.85;;;2.72;47.92
70256;BME280;57669;52.624;-1.688;2023-03-05T11:29:53;101319.74;;;3.22;47.71
70256;BME280;57669;52.624;-1.688;2023-03-05T11:32:21;101312.85;;;3.92;46.06
70256;BME280;57669;52.624;-1.688;2023-03-05T11:34:43;101303.53;;;3.68;46.40
70256;BME280;57669;52.624;-1.688;2023-03-05T11:37:18;101298.74;;;4.53;44.22
70256;BME280;57669;52.624;-1.688;2023-03-05T11:39:35;101302.55;;;4.20;43.95
70256;BME280;57669;52.624;-1.688;2023-03-05T11:42:00;101292.92;;;4.26;43.99
70256;BME280;57669;52.624;-1.688;2023-03-05T11:44:27;101284.03;;;5.10;42.87
70256;BME280;57669;52.624;-1.688;2023-03-05T11:46:53;101280.96;;;5.40;40.66
70256;BME280;57669;52.624;-1.688;2023-03-05T11:49:18;101285.88;;;4.49;42.55
70256;BME280;57669;52.624;-1.688;2023-03-05T11:51:44;101270.57;;;5.24;40.62
70256;BME280;57669;52.624;-1.688;2023-03-05T11:54:13;101270.74;;;4.69;40.72
70256;BME280;57669;52.624;-1.688;2023-03-05T11:56:34;101268.83;;;5.12;40.62
70256;BME280;57669;52.624;-1.688;2023-03-05T11:59:00;101263.38;;;4.46;41.60
70256;BME280;57669;52.624;-1.688;2023-03-05T12:01:25;101261.79;;;4.65;41.16
70256;BME280;57669;52.624;-1.688;2023-03-05T12:03:49;101257.18;;;4.92;41.30
70256;BME280;57669;52.624;-1.688;2023-03-05T12:06:17;101254.54;;;4.60;41.32
70256;BME280;57669;52.624;-1.688;2023-03-05T12:08:42;101254.17;;;4.29;40.92
70256;BME280;57669;52.624;-1.688;2023-03-05T12:11:12;101246.99;;;4.73;39.80
70256;BME280;57669;52.624;-1.688;2023-03-05T12:13:34;101237.36;;;4.87;39.76
70256;BME280;57669;52.624;-1.688;2023-03-05T12:16:05;101222.83;;;4.79;40.24
70256;BME280;57669;52.624;-1.688;2023-03-05T12:18:31;101223.37;;;5.40;39.28
70256;BME280;57669;52.624;-1.688;2023-03-05T12:20:55;101225.74;;;6.07;38.40
70256;BME280;57669;52.624;-1.688;2023-03-05T12:23:14;101223.85;;;5.48;38.51
70256;BME280;57669;52.624;-1.688;2023-03-05T12:25:44;101212.66;;;5.47;38.65
70256;BME280;57669;52.624;-1.688;2023-03-05T12:28:03;101207.42;;;6.50;37.54
70256;BME280;57669;52.624;-1.688;2023-03-05T12:32:54;101206.27;;;6.14;37.50
70256;BME280;57669;52.624;-1.688;2023-03-05T12:35:25;101194.62;;;5.79;37.96
70256;BME280;57669;52.624;-1.688;2023-03-05T12:37:58;101191.41;;;6.03;37.86
70256;BME280;57669;52.624;-1.688;2023-03-05T12:40:19;101193.93;;;6.79;36.63
70256;BME280;57669;52.624;-1.688;2023-03-05T12:42:45;101189.24;;;6.28;36.32
70256;BME280;57669;52.624;-1.688;2023-03-05T12:47:26;101175.96;;;7.28;35.11
70256;BME280;57669;52.624;-1.688;2023-03-05T12:49:52;101169.01;;;7.06;35.55
70256;BME280;57669;52.624;-1.688;2023-03-05T12:52:23;101173.15;;;6.09;36.13
70256;BME280;57669;52.624;-1.688;2023-03-05T12:54:42;101163.08;;;6.39;36.78
70256;BME280;57669;52.624;-1.688;2023-03-05T12:57:16;101158.85;;;6.82;36.52
70256;BME280;57669;52.624;-1.688;2023-03-05T12:59:41;101149.62;;;7.30;35.82
70256;BME280;57669;52.624;-1.688;2023-03-05T13:02:01;101143.12;;;7.05;36.01
70256;BME280;57669;52.624;-1.688;2023-03-05T13:04:27;101138.85;;;7.13;36.00